sensor_id;sensor_type;location;lat;lon;timestamp;pressure;altitude;pressure_sealevel;temperature
73685;BMP280;61985;51.070;14.064;2023-02-01T00:01:42;98390.38;;;3.38
73685;BMP280;61985;51.070;14.064;2023-02-01T00:04:07;98388.81;;;3.33
73685;BMP280;61985;51.070;14.064;2023-02-01T00:06:33;98391.44;;;3.30
73685;BMP280;61985;51.070;14.064;2023-02-01T00:08:58;98391.84;;;3.24
73685;BMP280;61985;51.070;14.064;2023-02-01T00:11:24;98389.56;;;3.23
73685;BMP280;61985;51.070;14.064;2023-02-01T00:13:50;98402.13;;;3.26
73685;BMP280;61985;51.070;14.064;2023-02-01T00:16:19;98402.13;;;3.26
73685;BMP280;61985;51.070;14.064;2023-02-01T00:18:46;98397.56;;;3.23
73685;BMP280;61985;51.070;14.064;2023-02-01T00:21:16;98397.56;;;3.23
73685;BMP280;61985;51.070;14.064;2023-02-01T00:23:42;98397.53;;;3.19
73685;BMP280;61985;51.070;14.064;2023-02-01T00:26:14;98410.44;;;3.14
73685;BMP280;61985;51.070;14.064;2023-02-01T00:28:40;98413.47;;;3.12
73685;BMP280;61985;51.070;14.064;2023-02-01T00:31:06;98405.88;;;3.11
73685;BMP280;61985;51.070;14.064;2023-02-01T00:33:32;98406.63;;;3.11
73685;BMP280;61985;51.070;14.064;2023-02-01T00:35:59;98406.25;;;3.13
73685;BMP280;61985;51.070;14.064;2023-02-01T00:38:26;98410.81;;;3.08
73685;BMP280;61985;51.070;14.064;2023-02-01T00:40:51;98416.50;;;3.07
73685;BMP280;61985;51.070;14.064;2023-02-01T00:43:16;98406.59;;;3.04
73685;BMP280;61985;51.070;14.064;2023-02-01T00:45:42;98410.38;;;3.03
73685;BMP280;61985;51.070;14.064;2023-02-01T00:48:07;98408.94;;;3.20
73685;BMP280;61985;51.070;14.064;2023-02-01T00:50:32;98414.25;;;3.16
73685;BMP280;61985;51.070;14.064;2023-02-01T00:52:58;98405.91;;;3.18
73685;BMP280;61985;51.070;14.064;2023-02-01T00:55:23;98404.38;;;3.17
73685;BMP280;61985;51.070;14.064;2023-02-01T00:57:48;98401.72;;;3.31
73685;BMP280;61985;51.070;14.064;2023-02-01T01:00:14;98406.69;;;3.33
73685;BMP280;61985;51.070;14.064;2023-02-01T01:02:41;98409.75;;;3.35
73685;BMP280;61985;51.070;14.064;2023-02-01T01:05:06;98408.22;;;3.34
73685;BMP280;61985;51.070;14.064;2023-02-01T01:07:32;98389.19;;;3.32
73685;BMP280;61985;51.070;14.064;2023-02-01T01:09:57;98407.09;;;3.35
73685;BMP280;61985;51.070;14.064;2023-02-01T01:12:22;98401.34;;;3.33
73685;BMP280;61985;51.070;14.064;2023-02-01T01:14:47;98400.97;;;3.31
73685;BMP280;61985;51.070;14.064;2023-02-01T01:17:13;98415.03;;;3.27
73685;BMP280;61985;51.070;14.064;2023-02-01T01:19:38;98409.00;;;3.27
73685;BMP280;61985;51.070;14.064;2023-02-01T01:22:04;98404.00;;;3.22
73685;BMP280;61985;51.070;14.064;2023-02-01T01:24:29;98404.41;;;3.24
73685;BMP280;61985;51.070;14.064;2023-02-01T01:26:54;98398.69;;;3.22
73685;BMP280;61985;51.070;14.064;2023-02-01T01:29:19;98401.34;;;3.22
73685;BMP280;61985;51.070;14.064;2023-02-01T01:31:45;98407.81;;;3.24
73685;BMP280;61985;51.070;14.064;2023-02-01T01:34:10;98398.66;;;3.18
73685;BMP280;61985;51.070;14.064;2023-02-01T01:36:35;98408.94;;;3.20
73685;BMP280;61985;51.070;14.064;2023-02-01T01:39:01;98404.00;;;3.18
73685;BMP280;61985;51.070;14.064;2023-02-01T01:41:29;98407.41;;;3.19
73685;BMP280;61985;51.070;14.064;2023-02-01T01:44:00;98405.13;;;3.17
73685;BMP280;61985;51.070;14.064;2023-02-01T01:46:31;98405.53;;;3.26
73685;BMP280;61985;51.070;14.064;2023-02-01T01:51:33;98401.75;;;3.35
73685;BMP280;61985;51.070;14.064;2023-02-01T01:54:11;98408.97;;;3.34
73685;BMP280;61985;51.070;14.064;2023-02-01T01:56:39;98396.81;;;3.33
73685;BMP280;61985;51.070;14.064;2023-02-01T01:59:06;98396.44;;;3.35
73685;BMP280;61985;51.070;14.064;2023-02-01T02:01:32;98405.94;;;3.32
73685;BMP280;61985;51.070;14.064;2023-02-01T02:03:58;98407.47;;;3.37
73685;BMP280;61985;51.070;14.064;2023-02-01T02:06:45;98396.81;;;3.37
73685;BMP280;61985;51.070;14.064;2023-02-01T02:09:14;98396.44;;;3.35
73685;BMP280;61985;51.070;14.064;2023-02-01T02:11:39;98405.56;;;3.34
73685;BMP280;61985;51.070;14.064;2023-02-01T02:14:07;98398.31;;;3.31
73685;BMP280;61985;51.070;14.064;2023-02-01T02:22:42;98398.69;;;3.29
73685;BMP280;61985;51.070;14.064;2023-02-01T02:31:00;98403.66;;;3.34
73685;BMP280;61985;51.070;14.064;2023-02-01T02:33:53;98386.16;;;3.33
73685;BMP280;61985;51.070;14.064;2023-02-01T02:36:30;98382.72;;;3.33
73685;BMP280;61985;51.070;14.064;2023-02-01T02:39:03;98385.78;;;3.38
73685;BMP280;61985;51.070;14.064;2023-02-01T02:44:34;98378.50;;;3.28
73685;BMP280;61985;51.070;14.064;2023-02-01T02:47:28;98370.53;;;3.24
73685;BMP280;61985;51.070;14.064;2023-02-01T02:52:52;98372.84;;;3.26
73685;BMP280;61985;51.070;14.064;2023-02-01T02:55:39;98363.31;;;3.28
73685;BMP280;61985;51.070;14.064;2023-02-01T02:58:07;98361.06;;;3.27
73685;BMP280;61985;51.070;14.064;2023-02-01T03:00:52;98364.84;;;3.26
73685;BMP280;61985;51.070;14.064;2023-02-01T03:03:38;98367.50;;;3.22
73685;BMP280;61985;51.070;14.064;2023-02-01T03:06:24;98365.97;;;3.18
73685;BMP280;61985;51.070;14.064;2023-02-01T03:08:50;98368.63;;;3.18
73685;BMP280;61985;51.070;14.064;2023-02-01T03:11:22;98361.03;;;3.16
73685;BMP280;61985;51.070;14.064;2023-02-01T03:14:00;98376.94;;;3.09
73685;BMP280;61985;51.070;14.064;2023-02-01T03:16:39;98371.63;;;3.13
73685;BMP280;61985;51.070;14.064;2023-02-01T03:19:15;98379.25;;;3.14
73685;BMP280;61985;51.070;14.064;2023-02-01T03:22:08;98391.81;;;3.14
73685;BMP280;61985;51.070;14.064;2023-02-01T03:24:54;98385.69;;;3.09
73685;BMP280;61985;51.070;14.064;2023-02-01T03:28:02;98391.44;;;3.15
73685;BMP280;61985;51.070;14.064;2023-02-01T03:32:35;98376.94;;;3.09
73685;BMP280;61985;51.070;14.064;2023-02-01T03:35:25;98368.59;;;3.07
73685;BMP280;61985;51.070;14.064;2023-02-01T03:37:55;98371.22;;;3.00
73685;BMP280;61985;51.070;14.064;2023-02-01T03:40:22;98368.97;;;3.09
73685;BMP280;61985;51.070;14.064;2023-02-01T03:42:51;98371.63;;;3.09
73685;BMP280;61985;51.070;14.064;2023-02-01T03:45:23;98362.94;;;3.23
73685;BMP280;61985;51.070;14.064;2023-02-01T03:47:53;98377.75;;;3.27
73685;BMP280;61985;51.070;14.064;2023-02-01T03:50:21;98372.44;;;3.20
73685;BMP280;61985;51.070;14.064;2023-02-01T03:52:53;98362.56;;;3.21
73685;BMP280;61985;51.070;14.064;2023-02-01T03:55:21;98368.63;;;3.21
73685;BMP280;61985;51.070;14.064;2023-02-01T03:57:53;98365.59;;;3.23
73685;BMP280;61985;51.070;14.064;2023-02-01T04:00:25;98358.00;;;3.21
73685;BMP280;61985;51.070;14.064;2023-02-01T04:02:52;98365.22;;;3.24
73685;BMP280;61985;51.070;14.064;2023-02-01T04:05:17;98365.19;;;3.28
73685;BMP280;61985;51.070;14.064;2023-02-01T04:07:43;98367.50;;;3.22
73685;BMP280;61985;51.070;14.064;2023-02-01T04:10:09;98365.22;;;3.24
73685;BMP280;61985;51.070;14.064;2023-02-01T04:12:35;98354.94;;;3.26
73685;BMP280;61985;51.070;14.064;2023-02-01T04:15:00;98343.94;;;3.32
73685;BMP280;61985;51.070;14.064;2023-02-01T04:17:25;98350.41;;;3.38
73685;BMP280;61985;51.070;14.064;2023-02-01T04:19:51;98341.25;;;3.35
73685;BMP280;61985;51.070;14.064;2023-02-01T04:22:16;98354.94;;;3.34
73685;BMP280;61985;51.070;14.064;2023-02-01T04:24:41;98347.34;;;3.25
73685;BMP280;61985;51.070;14.064;2023-02-01T04:27:06;98346.59;;;3.24
73685;BMP280;61985;51.070;14.064;2023-02-01T04:29:32;98347.72;;;3.20
73685;BMP280;61985;51.070;14.064;2023-02-01T04:31:57;98336.69;;;3.36
73685;BMP280;61985;51.070;14.064;2023-02-01T04:34:22;98337.44;;;3.33
73685;BMP280;61985;51.070;14.064;2023-02-01T04:36:50;98336.31;;;3.26
73685;BMP280;61985;51.070;14.064;2023-02-01T04:39:15;98334.41;;;3.34
73685;BMP280;61985;51.070;14.064;2023-02-01T04:41:41;98338.97;;;3.30
73685;BMP280;61985;51.070;14.064;2023-02-01T04:44:06;98326.41;;;3.31
73685;BMP280;61985;51.070;14.064;2023-02-01T04:46:31;98328.31;;;3.34
73685;BMP280;61985;51.070;14.064;2023-02-01T04:48:57;98329.44;;;3.29
73685;BMP280;61985;51.070;14.064;2023-02-01T04:51:22;98329.81;;;3.31
73685;BMP280;61985;51.070;14.064;2023-02-01T04:53:47;98318.81;;;3.33
73685;BMP280;61985;51.070;14.064;2023-02-01T04:56:13;98323.78;;;3.38
73685;BMP280;61985;51.070;14.064;2023-02-01T04:58:38;98322.25;;;3.33
73685;BMP280;61985;51.070;14.064;2023-02-01T05:01:05;98319.97;;;3.42
73685;BMP280;61985;51.070;14.064;2023-02-01T05:03:32;98313.47;;;3.33
73685;BMP280;61985;51.070;14.064;2023-02-01T05:05:58;98307.41;;;3.28
73685;BMP280;61985;51.070;14.064;2023-02-01T05:08:23;98306.25;;;3.30
73685;BMP280;61985;51.070;14.064;2023-02-01T05:10:50;98303.19;;;3.27
73685;BMP280;61985;51.070;14.064;2023-02-01T05:13:15;98296.00;;;3.35
73685;BMP280;61985;51.070;14.064;2023-02-01T05:15:59;98299.41;;;3.36
73685;BMP280;61985;51.070;14.064;2023-02-01T05:18:24;98302.44;;;3.31
73685;BMP280;61985;51.070;14.064;2023-02-01T05:20:50;98301.69;;;3.23
73685;BMP280;61985;51.070;14.064;2023-02-01T05:23:15;98295.63;;;3.26
73685;BMP280;61985;51.070;14.064;2023-02-01T05:25:40;98292.53;;;3.20
73685;BMP280;61985;51.070;14.064;2023-02-01T05:28:05;98288.00;;;3.32
73685;BMP280;61985;51.070;14.064;2023-02-01T05:30:32;98283.84;;;3.27
73685;BMP280;61985;51.070;14.064;2023-02-01T05:32:57;98278.47;;;3.23
73685;BMP280;61985;51.070;14.064;2023-02-01T05:35:22;98276.56;;;3.31
73685;BMP280;61985;51.070;14.064;2023-02-01T05:37:48;98284.19;;;3.33
73685;BMP280;61985;51.070;14.064;2023-02-01T05:40:13;98264.03;;;3.32
73685;BMP280;61985;51.070;14.064;2023-02-01T05:42:38;98267.06;;;3.26
73685;BMP280;61985;51.070;14.064;2023-02-01T05:45:04;98270.13;;;3.28
73685;BMP280;61985;51.070;14.064;2023-02-01T05:47:30;98265.16;;;3.31
73685;BMP280;61985;51.070;14.064;2023-02-01T05:49:56;98268.22;;;3.29
73685;BMP280;61985;51.070;14.064;2023-02-01T05:52:21;98264.41;;;3.26
73685;BMP280;61985;51.070;14.064;2023-02-01T05:54:46;98263.25;;;3.31
73685;BMP280;61985;51.070;14.064;2023-02-01T05:57:12;98257.56;;;3.29
73685;BMP280;61985;51.070;14.064;2023-02-01T05:59:38;98259.47;;;3.28
73685;BMP280;61985;51.070;14.064;2023-02-01T06:02:07;98271.66;;;3.26
73685;BMP280;61985;51.070;14.064;2023-02-01T06:04:32;98256.41;;;3.30
73685;BMP280;61985;51.070;14.064;2023-02-01T06:06:58;98270.53;;;3.27
73685;BMP280;61985;51.070;14.064;2023-02-01T06:09:23;98256.41;;;3.16
73685;BMP280;61985;51.070;14.064;2023-02-01T06:11:48;98247.63;;;3.08
73685;BMP280;61985;51.070;14.064;2023-02-01T06:14:13;98262.09;;;3.07
73685;BMP280;61985;51.070;14.064;2023-02-01T06:16:39;98262.44;;;2.98
73685;BMP280;61985;51.070;14.064;2023-02-01T06:19:04;98253.72;;;3.05
73685;BMP280;61985;51.070;14.064;2023-02-01T06:21:29;98270.47;;;2.95
73685;BMP280;61985;51.070;14.064;2023-02-01T06:23:55;98261.28;;;2.85
73685;BMP280;61985;51.070;14.064;2023-02-01T06:26:22;98255.97;;;2.85
73685;BMP280;61985;51.070;14.064;2023-02-01T06:28:47;98255.59;;;2.83
73685;BMP280;61985;51.070;14.064;2023-02-01T06:31:13;98255.97;;;2.85
73685;BMP280;61985;51.070;14.064;2023-02-01T06:33:39;98260.16;;;2.86
73685;BMP280;61985;51.070;14.064;2023-02-01T06:36:06;98256.38;;;2.87
73685;BMP280;61985;51.070;14.064;2023-02-01T06:38:32;98264.31;;;2.83
73685;BMP280;61985;51.070;14.064;2023-02-01T06:40:59;98255.59;;;2.83
73685;BMP280;61985;51.070;14.064;2023-02-01T06:43:26;98273.47;;;2.82
73685;BMP280;61985;51.070;14.064;2023-02-01T06:45:52;98257.47;;;2.75
73685;BMP280;61985;51.070;14.064;2023-02-01T06:48:18;98254.00;;;2.71
73685;BMP280;61985;51.070;14.064;2023-02-01T06:50:43;98254.41;;;2.73
73685;BMP280;61985;51.070;14.064;2023-02-01T06:53:11;98236.97;;;2.79
73685;BMP280;61985;51.070;14.064;2023-02-01T06:55:36;98244.59;;;2.92
73685;BMP280;61985;51.070;14.064;2023-02-01T06:58:02;98240.78;;;2.89
73685;BMP280;61985;51.070;14.064;2023-02-01T07:00:28;98243.09;;;2.98
73685;BMP280;61985;51.070;14.064;2023-02-01T07:02:54;98242.31;;;3.01
73685;BMP280;61985;51.070;14.064;2023-02-01T07:42:22;98218.69;;;2.74
73685;BMP280;61985;51.070;14.064;2023-02-01T07:44:47;98223.25;;;2.63
73685;BMP280;61985;51.070;14.064;2023-02-01T07:47:12;98225.09;;;2.51
73685;BMP280;61985;51.070;14.064;2023-02-01T07:49:38;98224.72;;;2.49
73685;BMP280;61985;51.070;14.064;2023-02-01T07:52:03;98232.72;;;2.49
73685;BMP280;61985;51.070;14.064;2023-02-01T07:54:28;98216.38;;;2.51
73685;BMP280;61985;51.070;14.064;2023-02-01T07:56:54;98214.09;;;2.49
73685;BMP280;61985;51.070;14.064;2023-02-01T07:59:19;98213.72;;;2.54
73685;BMP280;61985;51.070;14.064;2023-02-01T08:01:44;98214.09;;;2.57
73685;BMP280;61985;51.070;14.064;2023-02-01T08:04:11;98219.44;;;2.60
73685;BMP280;61985;51.070;14.064;2023-02-01T08:06:37;98217.16;;;2.59
73685;BMP280;61985;51.070;14.064;2023-02-01T08:09:04;98205.78;;;2.62
73685;BMP280;61985;51.070;14.064;2023-02-01T08:11:30;98203.88;;;2.59
73685;BMP280;61985;51.070;14.064;2023-02-01T08:13:55;98201.97;;;2.63
73685;BMP280;61985;51.070;14.064;2023-02-01T08:16:22;98207.66;;;2.58
73685;BMP280;61985;51.070;14.064;2023-02-01T08:18:48;98198.88;;;2.53
73685;BMP280;61985;51.070;14.064;2023-02-01T08:21:20;98198.13;;;2.53
73685;BMP280;61985;51.070;14.064;2023-02-01T08:23:47;98195.09;;;2.51
73685;BMP280;61985;51.070;14.064;2023-02-01T08:26:21;98211.09;;;2.62
73685;BMP280;61985;51.070;14.064;2023-02-01T08:28:55;98202.75;;;2.67
73685;BMP280;61985;51.070;14.064;2023-02-01T08:31:23;98195.91;;;2.73
73685;BMP280;61985;51.070;14.064;2023-02-01T08:33:51;98187.53;;;2.78
73685;BMP280;61985;51.070;14.064;2023-02-01T08:36:18;98196.28;;;2.75
73685;BMP280;61985;51.070;14.064;2023-02-01T08:38:43;98193.59;;;2.75
73685;BMP280;61985;51.070;14.064;2023-02-01T08:41:14;98194.00;;;2.73
73685;BMP280;61985;51.070;14.064;2023-02-01T08:43:40;98181.44;;;2.70
73685;BMP280;61985;51.070;14.064;2023-02-01T08:46:06;98179.53;;;2.71
73685;BMP280;61985;51.070;14.064;2023-02-01T08:48:32;98182.94;;;2.68
73685;BMP280;61985;51.070;14.064;2023-02-01T08:51:01;98173.06;;;2.58
73685;BMP280;61985;51.070;14.064;2023-02-01T08:53:27;98176.09;;;2.52
73685;BMP280;61985;51.070;14.064;2023-02-01T08:55:52;98166.22;;;2.49
73685;BMP280;61985;51.070;14.064;2023-02-01T08:58:17;98174.19;;;2.57
73685;BMP280;61985;51.070;14.064;2023-02-01T09:00:44;98171.53;;;2.57
73685;BMP280;61985;51.070;14.064;2023-02-01T09:03:11;98167.00;;;2.57
73685;BMP280;61985;51.070;14.064;2023-02-01T09:05:37;98161.31;;;2.62
73685;BMP280;61985;51.070;14.064;2023-02-01T09:08:03;98161.66;;;2.68
73685;BMP280;61985;51.070;14.064;2023-02-01T09:10:29;98160.56;;;2.76
73685;BMP280;61985;51.070;14.064;2023-02-01T09:12:55;98162.50;;;2.90
73685;BMP280;61985;51.070;14.064;2023-02-01T09:15:20;98160.19;;;2.99
73685;BMP280;61985;51.070;14.064;2023-02-01T09:17:45;98162.47;;;3.15
73685;BMP280;61985;51.070;14.064;2023-02-01T09:20:11;98151.78;;;3.30
73685;BMP280;61985;51.070;14.064;2023-02-01T09:22:37;98152.19;;;3.39
73685;BMP280;61985;51.070;14.064;2023-02-01T09:25:02;98146.47;;;3.40
73685;BMP280;61985;51.070;14.064;2023-02-01T09:27:27;98148.38;;;3.47
73685;BMP280;61985;51.070;14.064;2023-02-01T09:29:53;98148.75;;;3.49
73685;BMP280;61985;51.070;14.064;2023-02-01T09:32:20;98169.69;;;3.51
73685;BMP280;61985;51.070;14.064;2023-02-01T09:34:45;98150.66;;;3.49
73685;BMP280;61985;51.070;14.064;2023-02-01T09:37:11;98145.66;;;3.54
73685;BMP280;61985;51.070;14.064;2023-02-01T09:39:36;98135.00;;;3.61
73685;BMP280;61985;51.070;14.064;2023-02-01T09:47:23;98131.94;;;3.77
73685;BMP280;61985;51.070;14.064;2023-02-01T09:49:55;98150.59;;;3.74
73685;BMP280;61985;51.070;14.064;2023-02-01T09:52:29;98143.38;;;3.63
73685;BMP280;61985;51.070;14.064;2023-02-01T09:55:01;98154.44;;;3.51
73685;BMP280;61985;51.070;14.064;2023-02-01T09:57:40;98152.19;;;3.42
73685;BMP280;61985;51.070;14.064;2023-02-01T10:00:19;98162.47;;;3.33
73685;BMP280;61985;51.070;14.064;2023-02-01T10:02:46;98170.06;;;3.09
73685;BMP280;61985;51.070;14.064;2023-02-01T10:05:19;98158.69;;;2.95
73685;BMP280;61985;51.070;14.064;2023-02-01T10:08:12;98156.38;;;2.79
73685;BMP280;61985;51.070;14.064;2023-02-01T10:10:44;98173.09;;;2.72
73685;BMP280;61985;51.070;14.064;2023-02-01T10:18:40;98183.25;;;2.41
73685;BMP280;61985;51.070;14.064;2023-02-01T10:21:47;98204.16;;;2.35
73685;BMP280;61985;51.070;14.064;2023-02-01T10:24:36;98184.03;;;2.31
73685;BMP280;61985;51.070;14.064;2023-02-01T10:27:12;98192.00;;;2.31
73685;BMP280;61985;51.070;14.064;2023-02-01T10:29:41;98210.97;;;2.33
73685;BMP280;61985;51.070;14.064;2023-02-01T10:32:22;98205.66;;;2.33
73685;BMP280;61985;51.070;14.064;2023-02-01T10:34:53;98207.97;;;2.31
73685;BMP280;61985;51.070;14.064;2023-02-01T10:37:28;98206.81;;;2.32
73685;BMP280;61985;51.070;14.064;2023-02-01T10:39:55;98225.78;;;2.34
73685;BMP280;61985;51.070;14.064;2023-02-01T10:42:25;98219.38;;;2.39
73685;BMP280;61985;51.070;14.064;2023-02-01T10:44:52;98217.06;;;2.37
73685;BMP280;61985;51.070;14.064;2023-02-01T10:47:18;98198.06;;;2.35
73685;BMP280;61985;51.070;14.064;2023-02-01T10:49:52;98206.81;;;2.32
73685;BMP280;61985;51.070;14.064;2023-02-01T10:52:37;98212.50;;;2.34
73685;BMP280;61985;51.070;14.064;2023-02-01T10:55:28;98210.97;;;2.33
73685;BMP280;61985;51.070;14.064;2023-02-01T10:58:30;98219.31;;;2.35
73685;BMP280;61985;51.070;14.064;2023-02-01T11:01:02;98192.03;;;2.42
73685;BMP280;61985;51.070;14.064;2023-02-01T11:03:36;98217.13;;;2.48
73685;BMP280;61985;51.070;14.064;2023-02-01T11:08:50;98217.16;;;2.62
73685;BMP280;61985;51.070;14.064;2023-02-01T11:11:16;98218.69;;;2.67
73685;BMP280;61985;51.070;14.064;2023-02-01T11:13:42;98233.47;;;2.68
73685;BMP280;61985;51.070;14.064;2023-02-01T11:16:12;98226.66;;;2.70
73685;BMP280;61985;51.070;14.064;2023-02-01T11:18:38;98214.50;;;2.73
73685;BMP280;61985;51.070;14.064;2023-02-01T11:21:09;98230.88;;;2.82
73685;BMP280;61985;51.070;14.064;2023-02-01T11:23:41;98208.09;;;2.88
73685;BMP280;61985;51.070;14.064;2023-02-01T11:28:39;98232.44;;;3.05
73685;BMP280;61985;51.070;14.064;2023-02-01T11:31:10;98226.34;;;3.08
73685;BMP280;61985;51.070;14.064;2023-02-01T11:33:47;98227.13;;;3.08
73685;BMP280;61985;51.070;14.064;2023-02-01T11:36:17;98231.69;;;3.15
73685;BMP280;61985;51.070;14.064;2023-02-01T11:41:55;98207.34;;;3.38
73685;BMP280;61985;51.070;14.064;2023-02-01T11:44:34;98219.88;;;3.34
73685;BMP280;61985;51.070;14.064;2023-02-01T11:49:59;98202.06;;;3.24
73685;BMP280;61985;51.070;14.064;2023-02-01T11:52:41;98200.50;;;3.26
73685;BMP280;61985;51.070;14.064;2023-02-01T11:55:23;98209.25;;;3.23
73685;BMP280;61985;51.070;14.064;2023-02-01T11:58:31;98203.16;;;3.30
73685;BMP280;61985;51.070;14.064;2023-02-01T12:03:45;98184.53;;;3.41
73685;BMP280;61985;51.070;14.064;2023-02-01T12:06:48;98193.28;;;3.41
73685;BMP280;61985;51.070;14.064;2023-02-01T12:09:27;98196.31;;;3.33
73685;BMP280;61985;51.070;14.064;2023-02-01T12:17:39;98192.50;;;3.05
73685;BMP280;61985;51.070;14.064;2023-02-01T12:20:18;98189.09;;;3.01
73685;BMP280;61985;51.070;14.064;2023-02-01T12:25:52;98184.91;;;3.00
73685;BMP280;61985;51.070;14.064;2023-02-01T12:28:46;98179.94;;;3.02
73685;BMP280;61985;51.070;14.064;2023-02-01T12:37:14;98151.06;;;3.22
73685;BMP280;61985;51.070;14.064;2023-02-01T12:40:07;98152.19;;;3.28
73685;BMP280;61985;51.070;14.064;2023-02-01T12:42:42;98154.09;;;3.35
73685;BMP280;61985;51.070;14.064;2023-02-01T12:46:02;98156.38;;;3.40
73685;BMP280;61985;51.070;14.064;2023-02-01T12:48:31;98183.78;;;3.44
73685;BMP280;61985;51.070;14.064;2023-02-01T12:51:06;98177.66;;;3.43
73685;BMP280;61985;51.070;14.064;2023-02-01T12:53:50;98168.56;;;3.41
73685;BMP280;61985;51.070;14.064;2023-02-01T12:56:34;98169.69;;;3.36
73685;BMP280;61985;51.070;14.064;2023-02-01T12:59:04;98162.84;;;3.32
73685;BMP280;61985;51.070;14.064;2023-02-01T13:01:38;98157.16;;;3.26
73685;BMP280;61985;51.070;14.064;2023-02-01T13:06:46;98157.88;;;3.34
73685;BMP280;61985;51.070;14.064;2023-02-01T13:09:22;98157.88;;;3.37
73685;BMP280;61985;51.070;14.064;2023-02-01T13:11:49;98163.22;;;3.44
73685;BMP280;61985;51.070;14.064;2023-02-01T13:17:29;98144.94;;;3.50
73685;BMP280;61985;51.070;14.064;2023-02-01T13:20:16;98155.56;;;3.57
73685;BMP280;61985;51.070;14.064;2023-02-01T13:22:50;98138.81;;;3.60
73685;BMP280;61985;51.070;14.064;2023-02-01T13:25:40;98150.22;;;3.64
73685;BMP280;61985;51.070;14.064;2023-02-01T13:28:16;98156.72;;;3.67
73685;BMP280;61985;51.070;14.064;2023-02-01T13:36:48;98148.31;;;3.69
73685;BMP280;61985;51.070;14.064;2023-02-01T13:42:53;98144.13;;;3.71
73685;BMP280;61985;51.070;14.064;2023-02-01T13:45:22;98134.25;;;3.72
73685;BMP280;61985;51.070;14.064;2023-02-01T13:47:50;98141.03;;;3.87
73685;BMP280;61985;51.070;14.064;2023-02-01T13:55:40;98128.34;;;4.06
73685;BMP280;61985;51.070;14.064;2023-02-01T14:00:38;98129.47;;;4.12
73685;BMP280;61985;51.070;14.064;2023-02-01T14:21:32;98121.50;;;4.08
73685;BMP280;61985;51.070;14.064;2023-02-01T14:24:15;98112.75;;;4.08
73685;BMP280;61985;51.070;14.064;2023-02-01T14:26:48;98108.16;;;4.08
73685;BMP280;61985;51.070;14.064;2023-02-01T14:34:38;98111.25;;;4.03
73685;BMP280;61985;51.070;14.064;2023-02-01T14:37:10;98120.75;;;4.08
73685;BMP280;61985;51.070;14.064;2023-02-01T14:39:49;98116.53;;;4.07
73685;BMP280;61985;51.070;14.064;2023-02-01T14:42:22;98101.28;;;4.14
73685;BMP280;61985;51.070;14.064;2023-02-01T14:44:50;98103.19;;;4.17
73685;BMP280;61985;51.070;14.064;2023-02-01T14:49:57;98114.25;;;4.12
73685;BMP280;61985;51.070;14.064;2023-02-01T14:52:36;98118.09;;;4.08
73685;BMP280;61985;51.070;14.064;2023-02-01T14:57:57;98096.69;;;4.15
73685;BMP280;61985;51.070;14.064;2023-02-01T15:00:29;98108.88;;;4.19
73685;BMP280;61985;51.070;14.064;2023-02-01T15:03:15;98111.88;;;4.25
73685;BMP280;61985;51.070;14.064;2023-02-01T15:05:44;98114.91;;;4.27
73685;BMP280;61985;51.070;14.064;2023-02-01T15:08:24;98105.09;;;4.17
73685;BMP280;61985;51.070;14.064;2023-02-01T15:10:52;98108.84;;;4.23
73685;BMP280;61985;51.070;14.064;2023-02-01T15:13:23;98106.53;;;4.25
73685;BMP280;61985;51.070;14.064;2023-02-01T15:16:14;98094.34;;;4.24
73685;BMP280;61985;51.070;14.064;2023-02-01T15:18:41;98088.63;;;4.26
73685;BMP280;61985;51.070;14.064;2023-02-01T15:21:15;98084.84;;;4.23
73685;BMP280;61985;51.070;14.064;2023-02-01T15:23:41;98073.47;;;4.15
73685;BMP280;61985;51.070;14.064;2023-02-01T15:26:06;98087.50;;;4.23
73685;BMP280;61985;51.070;14.064;2023-02-01T15:28:31;98081.47;;;4.19
73685;BMP280;61985;51.070;14.064;2023-02-01T15:30:59;98091.75;;;4.13
73685;BMP280;61985;51.070;14.064;2023-02-01T15:33:26;98105.13;;;4.10
73685;BMP280;61985;51.070;14.064;2023-02-01T15:35:54;98092.28;;;3.83
73685;BMP280;61985;51.070;14.064;2023-02-01T15:41:15;98087.81;;;3.58
73685;BMP280;61985;51.070;14.064;2023-02-01T15:46:12;98085.59;;;3.46
73685;BMP280;61985;51.070;14.064;2023-02-01T15:48:51;98065.81;;;3.40
73685;BMP280;61985;51.070;14.064;2023-02-01T15:51:19;98071.53;;;3.35
73685;BMP280;61985;51.070;14.064;2023-02-01T15:53:52;98051.75;;;3.36
73685;BMP280;61985;51.070;14.064;2023-02-01T15:56:43;98034.66;;;3.33
73685;BMP280;61985;51.070;14.064;2023-02-01T15:59:19;98033.13;;;3.28
73685;BMP280;61985;51.070;14.064;2023-02-01T16:01:46;98036.91;;;3.31
73685;BMP280;61985;51.070;14.064;2023-02-01T16:04:20;98022.44;;;3.36
73685;BMP280;61985;51.070;14.064;2023-02-01T16:06:58;98016.75;;;3.41
73685;BMP280;61985;51.070;14.064;2023-02-01T16:09:36;98017.06;;;3.54
73685;BMP280;61985;51.070;14.064;2023-02-01T16:12:17;98028.47;;;3.58
73685;BMP280;61985;51.070;14.064;2023-02-01T16:14:44;98022.38;;;3.57
73685;BMP280;61985;51.070;14.064;2023-02-01T16:17:10;98017.09;;;3.50
73685;BMP280;61985;51.070;14.064;2023-02-01T16:19:35;98001.13;;;3.46
73685;BMP280;61985;51.070;14.064;2023-02-01T16:22:00;97996.56;;;3.47
73685;BMP280;61985;51.070;14.064;2023-02-01T16:24:26;97990.84;;;3.45
73685;BMP280;61985;51.070;14.064;2023-02-01T16:26:51;97984.34;;;3.53
73685;BMP280;61985;51.070;14.064;2023-02-01T16:29:16;97981.34;;;3.48
73685;BMP280;61985;51.070;14.064;2023-02-01T16:31:42;97974.50;;;3.50
73685;BMP280;61985;51.070;14.064;2023-02-01T16:34:14;98001.16;;;3.39
73685;BMP280;61985;51.070;14.064;2023-02-01T16:36:42;97989.00;;;3.35
73685;BMP280;61985;51.070;14.064;2023-02-01T16:39:10;97986.75;;;3.26
73685;BMP280;61985;51.070;14.064;2023-02-01T16:41:36;97978.78;;;3.15
73685;BMP280;61985;51.070;14.064;2023-02-01T16:44:01;97979.56;;;3.08
73685;BMP280;61985;51.070;14.064;2023-02-01T16:46:28;97981.50;;;3.01
73685;BMP280;61985;51.070;14.064;2023-02-01T16:48:57;97987.59;;;2.94
73685;BMP280;61985;51.070;14.064;2023-02-01T16:51:26;97994.81;;;2.86
73685;BMP280;61985;51.070;14.064;2023-02-01T16:53:52;98004.72;;;2.82
73685;BMP280;61985;51.070;14.064;2023-02-01T16:56:21;98005.09;;;2.77
73685;BMP280;61985;51.070;14.064;2023-02-01T16:58:46;98011.94;;;2.67
73685;BMP280;61985;51.070;14.064;2023-02-01T17:01:14;98023.75;;;2.48
73685;BMP280;61985;51.070;14.064;2023-02-01T17:03:40;98028.69;;;2.25